Main page
METAR-TAF:

METAR-TAF

Airports :

Takhamalt Airport

Illizi, Algeria

latitude: 26-30N, longitude: 008-25E, elevation: 558 m

Current weather observation

The report was made 36 minutes ago, at 14:00 UTC
Wind 3 kt from the South
Temperature 42°C
Pressure 1014 hPa
Visibility: 6000 m
Scattered clouds at a height of 4000 ft

METAR: DAAP 011400Z 19003KT 6000 SCT040 42/// Q1014

Time: 15:36 (14:36 UTC)

Forecast

The report was made 3 hours and 36 minutes ago, at 11:00 UTC
Forecast valid from 01 at 12 UTC to 01 at 21 UTC
Wind 9 kt from the East
Visibility: 6000 m
Scattered clouds at a height of 4000 ft
Scattered clouds at a height of 8000 ft
Probability 40%
from 01 at 12 UTC to 01 at 15 UTC
Visibility: 2000 m
haze

TAF: DAAP 011100Z 0112/0121 08009KT 6000 SCT040 SCT080 PROB40 0112/0115 2000 HZ

Weather observations and forecasts of more than 4000 airports (METAR and TAF reports).

The available stations are represented by yellow and red dots on the map.

Hover mouse over dot to see the name of the station.

Then click to see weather observations and forecasts.

To change the map : click on the green buttons with a black cross to zoom in, on the green button with a dash to zoom out, or on the green arrows for adjacent maps.


METAR-TAF: